createdAt,value
2023-05-22T03:45:52.053Z,100303.81
2023-05-22T03:48:55.359Z,100303.81
2023-05-22T03:51:57.793Z,100317.63
2023-05-22T03:55:00.557Z,100307.78
2023-05-22T03:58:02.969Z,100309.28
2023-05-22T04:01:05.712Z,100305.25
2023-05-22T04:04:09.584Z,100310.72
2023-05-22T04:07:15.082Z,100304.47
2023-05-22T04:10:17.936Z,100310.47
2023-05-22T04:13:20.571Z,100311.25
2023-05-22T04:16:23.422Z,100316.81
2023-05-22T04:19:28.158Z,100311.97
2023-05-22T04:22:31.081Z,100314.81
2023-05-22T04:25:34.441Z,100309.78
2023-05-22T04:28:37.958Z,100310.72
2023-05-22T04:31:42.140Z,100314.97
2023-05-22T04:34:47.766Z,100314.31
2023-05-22T04:37:51.593Z,100307.47
2023-05-22T04:40:55.058Z,100305.94
2023-05-22T04:43:58.643Z,100315.44
2023-05-22T04:47:02.388Z,100314.50
2023-05-22T04:50:05.417Z,100319.72
2023-05-22T04:53:08.386Z,100320.25
2023-05-22T04:56:13.055Z,100322.97
2023-05-22T04:59:19.396Z,100318.78
2023-05-22T05:02:21.853Z,100326.09
2023-05-22T05:05:24.895Z,100324.66
2023-05-22T05:08:28.072Z,100330.47
2023-05-22T05:11:30.916Z,100338.16
2023-05-22T05:14:33.433Z,100330.94
2023-05-22T05:17:36.223Z,100329.72
2023-05-22T05:20:39.040Z,100332.25
2023-05-22T05:23:42.489Z,100331.03
2023-05-22T05:26:45.103Z,100334.81
2023-05-22T05:29:48.092Z,100335.66
2023-05-22T05:32:51.827Z,100347.91
2023-05-22T05:35:54.893Z,100339.19
2023-05-22T05:38:58.858Z,100332.97
2023-05-22T05:42:01.786Z,100339.47
2023-05-22T05:45:04.974Z,100345.44
2023-05-22T05:48:08.367Z,100353.78
2023-05-22T05:51:12.941Z,100353.91
2023-05-22T05:54:17.439Z,100352.69
2023-05-22T05:57:20.999Z,100354.16
2023-05-22T06:00:24.950Z,100356.41
2023-05-22T06:03:29.889Z,100354.12
2023-05-22T06:06:36.402Z,100352.22
2023-05-22T06:09:39.681Z,100347.25
2023-05-22T06:12:43.334Z,100352.87
2023-05-22T06:15:46.184Z,100351.91
2023-05-22T06:18:49.532Z,100356.41
2023-05-22T06:21:52.513Z,100349.03
2023-05-22T06:24:56.025Z,100348.44
2023-05-22T06:28:01.392Z,100359.25
2023-05-22T06:31:04.522Z,100349.44
2023-05-22T06:34:08.209Z,100343.81
2023-05-22T06:37:11.953Z,100351.78
2023-05-22T06:40:15.330Z,100350.69
2023-05-22T06:43:19.269Z,100353.28
2023-05-22T06:46:23.304Z,100358.09
2023-05-22T06:49:27.631Z,100358.81
2023-05-22T06:52:32.086Z,100350.53
2023-05-22T06:55:34.802Z,100356.59
2023-05-22T06:58:39.344Z,100357.06
2023-05-22T07:01:42.089Z,100355.78
2023-05-22T07:04:44.949Z,100354.09
2023-05-22T07:07:47.704Z,100367.09
2023-05-22T07:10:51.631Z,100352.66
2023-05-22T07:13:54.038Z,100361.97
2023-05-22T07:16:56.958Z,100363.66
2023-05-22T07:20:00.126Z,100364.31
2023-05-22T07:23:04.471Z,100365.75
2023-05-22T07:26:09.696Z,100363.09
2023-05-22T07:29:16.961Z,100355.72
2023-05-22T07:32:20.246Z,100355.44
2023-05-22T07:35:23.446Z,100354.78
2023-05-22T07:38:26.035Z,100355.22
2023-05-22T07:41:30.217Z,100350.44
2023-05-22T07:44:33.566Z,100342.69
2023-05-22T07:47:36.354Z,100342.88
2023-05-22T07:50:38.856Z,100347.94
2023-05-22T07:53:42.458Z,100354.72
2023-05-22T07:56:45.820Z,100349.97
2023-05-22T07:59:49.222Z,100353.25
2023-05-22T08:02:51.982Z,100352.53
2023-05-22T08:05:54.870Z,100354.63
2023-05-22T08:08:57.270Z,100360.28
2023-05-22T08:11:59.945Z,100354.41
2023-05-22T08:15:02.376Z,100351.66
2023-05-22T08:18:05.139Z,100355.78
2023-05-22T08:21:07.962Z,100354.09
2023-05-22T08:24:10.752Z,100358.13
2023-05-22T08:27:13.244Z,100347.25
2023-05-22T08:30:16.461Z,100361.03
2023-05-22T08:33:19.717Z,100354.03
2023-05-22T08:36:23.437Z,100354.31
2023-05-22T08:39:25.790Z,100356.09
2023-05-22T08:42:28.507Z,100351.00
2023-05-22T08:45:34.131Z,100349.00
2023-05-22T08:48:38.132Z,100346.41
2023-05-22T08:51:42.386Z,100346.00
2023-05-22T08:54:51.799Z,100351.44
2023-05-22T08:57:56.759Z,100348.78
2023-05-22T09:00:59.664Z,100342.66
2023-05-22T09:04:03.099Z,100342.75
2023-05-22T09:07:06.079Z,100340.00
2023-05-22T09:10:08.944Z,100352.81
2023-05-22T09:13:25.234Z,100340.66
2023-05-22T09:16:28.585Z,100338.50
2023-05-22T09:19:31.256Z,100334.97
2023-05-22T09:22:40.822Z,100340.72
2023-05-22T09:25:44.767Z,100341.38
2023-05-22T09:28:47.483Z,100328.34
2023-05-22T09:31:50.412Z,100338.50
2023-05-22T09:34:53.180Z,100345.25
2023-05-22T09:37:57.710Z,100342.56
2023-05-22T09:44:15.721Z,100334.81
2023-05-22T09:47:19.042Z,100332.81
2023-05-22T09:50:21.883Z,100331.53
2023-05-22T09:53:30.194Z,100326.59
2023-05-22T09:56:39.972Z,100336.44
2023-05-22T09:59:44.164Z,100322.16
2023-05-22T10:02:50.818Z,100331.84
2023-05-22T10:05:58.728Z,100316.22
2023-05-22T10:09:09.149Z,100323.78
2023-05-22T10:12:16.317Z,100320.84
2023-05-22T10:15:19.126Z,100326.38
2023-05-22T10:18:22.044Z,100329.06
2023-05-22T10:21:25.438Z,100319.00
2023-05-22T10:24:29.511Z,100313.00
2023-05-22T10:27:32.440Z,100309.97
2023-05-22T10:30:51.748Z,100299.91
2023-05-22T10:34:08.333Z,100301.94
2023-05-22T10:37:24.795Z,100293.72
2023-05-22T10:40:31.790Z,100292.34
2023-05-22T10:43:39.097Z,100290.16
2023-05-22T10:46:52.457Z,100289.16
2023-05-22T10:50:06.709Z,100276.59
2023-05-22T10:53:26.954Z,100280.59
2023-05-22T10:56:35.231Z,100282.31
2023-05-22T10:59:37.812Z,100274.94
2023-05-22T11:02:42.751Z,100270.53
2023-05-22T11:05:52.873Z,100270.69
2023-05-22T11:08:56.555Z,100262.25
2023-05-22T11:12:17.806Z,100258.41
2023-05-22T11:15:31.171Z,100257.03
2023-05-22T11:18:33.699Z,100253.22
2023-05-22T11:21:47.041Z,100253.44
2023-05-22T11:24:49.714Z,100243.63
2023-05-22T11:27:53.826Z,100242.44
2023-05-22T11:30:57.386Z,100245.47
2023-05-22T11:34:00.560Z,100235.47
2023-05-22T11:37:02.945Z,100240.66
2023-05-22T11:40:06.599Z,100240.37
2023-05-22T11:43:09.426Z,100237.66
2023-05-22T11:46:14.118Z,100235.44
2023-05-22T11:49:17.310Z,100229.91
2023-05-22T11:52:20.391Z,100230.25
2023-05-22T11:55:23.032Z,100226.06
2023-05-22T11:58:28.791Z,100229.09
2023-05-22T12:01:32.260Z,100229.06
2023-05-22T12:04:37.761Z,100219.94
2023-05-22T12:07:40.355Z,100215.66
2023-05-22T12:10:50.448Z,100221.94
2023-05-22T12:14:00.728Z,100215.41
2023-05-22T12:17:04.481Z,100210.44
2023-05-22T12:20:07.341Z,100208.97
2023-05-22T12:23:24.806Z,100201.56
2023-05-22T12:26:27.310Z,100195.12
2023-05-22T12:29:29.944Z,100191.53
2023-05-22T12:32:32.442Z,100194.25
2023-05-22T12:35:35.159Z,100192.06
2023-05-22T12:38:39.298Z,100186.50
2023-05-22T12:41:42.242Z,100182.66
2023-05-22T12:44:45.453Z,100175.59
2023-05-22T12:47:48.110Z,100172.31
2023-05-22T12:50:50.687Z,100166.53
2023-05-22T12:53:55.169Z,100155.50
2023-05-22T12:56:57.581Z,100163.41
2023-05-22T13:00:00.398Z,100151.91
2023-05-22T13:03:03.561Z,100143.06
2023-05-22T13:06:07.081Z,100146.22
2023-05-22T13:09:09.376Z,100139.47
2023-05-22T13:12:12.256Z,100143.62
2023-05-22T13:15:15.986Z,100132.81
2023-05-22T13:18:19.672Z,100129.56
2023-05-22T13:21:26.806Z,100126.13
2023-05-22T13:24:30.267Z,100121.50
2023-05-22T13:27:33.919Z,100116.56
2023-05-22T13:30:36.859Z,100123.31
2023-05-22T13:33:39.620Z,100118.16
2023-05-22T13:36:42.562Z,100117.12
2023-05-22T13:39:44.991Z,100109.34
2023-05-22T13:42:48.180Z,100105.09
2023-05-22T13:45:50.753Z,100108.69
2023-05-22T13:48:53.401Z,100106.38
2023-05-22T13:51:57.347Z,100105.66
2023-05-22T13:55:00.598Z,100100.69
2023-05-22T13:58:04.177Z,100104.56
2023-05-22T14:01:09.934Z,100105.66
2023-05-22T14:04:12.734Z,100098.72
2023-05-22T14:07:15.863Z,100096.12
2023-05-22T14:10:18.891Z,100094.13
2023-05-22T14:13:21.348Z,100104.00
2023-05-22T14:16:23.901Z,100094.66
2023-05-22T14:19:26.348Z,100092.91
2023-05-22T14:22:29.121Z,100087.16
2023-05-22T14:25:31.456Z,100081.16
2023-05-22T14:28:34.329Z,100087.72
2023-05-22T14:31:50.418Z,100087.94
2023-05-22T14:34:54.721Z,100079.31
2023-05-22T14:37:57.280Z,100076.34
2023-05-22T14:41:01.019Z,100076.00
2023-05-22T14:44:03.745Z,100075.25
2023-05-22T14:47:06.760Z,100081.75
2023-05-22T14:50:19.056Z,100082.34
2023-05-22T14:53:22.739Z,100071.19
2023-05-22T14:56:26.550Z,100075.72
2023-05-22T14:59:29.314Z,100079.62
2023-05-22T15:02:31.933Z,100072.59
2023-05-22T15:05:34.628Z,100073.09
2023-05-22T15:08:37.298Z,100074.94
2023-05-22T15:11:45.585Z,100074.44
2023-05-22T15:14:48.534Z,100073.78
2023-05-22T15:17:51.301Z,100072.94
2023-05-22T15:20:55.325Z,100069.44
2023-05-22T15:23:58.840Z,100068.41
2023-05-22T15:27:02.228Z,100067.72
2023-05-22T15:30:10.141Z,100060.53
2023-05-22T15:33:13.195Z,100051.50
2023-05-22T15:36:15.864Z,100049.06
2023-05-22T15:39:18.408Z,100045.84
2023-05-22T15:42:21.904Z,100049.94
2023-05-22T15:45:24.248Z,100055.19
2023-05-22T15:48:27.019Z,100056.53
2023-05-22T15:51:29.569Z,100050.34
2023-05-22T15:54:32.337Z,100055.06
2023-05-22T15:57:34.836Z,100051.38
2023-05-22T16:00:41.021Z,100048.88
2023-05-22T16:03:43.915Z,100051.88
2023-05-22T16:06:46.417Z,100054.84
2023-05-22T16:09:50.529Z,100051.00
2023-05-22T16:12:52.827Z,100050.69
2023-05-22T16:15:55.764Z,100050.47
2023-05-22T16:18:58.257Z,100047.13
2023-05-22T16:22:01.130Z,100049.63
2023-05-22T16:25:03.577Z,100048.94
2023-05-22T16:28:06.422Z,100048.94
2023-05-22T16:31:08.893Z,100052.94
2023-05-22T16:34:11.485Z,100052.59
2023-05-22T16:37:13.731Z,100043.72
2023-05-22T16:40:17.499Z,100047.53
2023-05-22T16:43:19.897Z,100041.72
2023-05-22T16:46:22.599Z,100038.72
2023-05-22T16:49:25.158Z,100040.91
2023-05-22T16:52:27.699Z,100047.44
2023-05-22T16:55:29.936Z,100049.97
2023-05-22T16:58:32.657Z,100050.28
2023-05-22T17:01:36.017Z,100055.19
2023-05-22T17:04:40.128Z,100062.69
2023-05-22T17:07:42.659Z,100058.81
2023-05-22T17:10:45.502Z,100067.69
2023-05-22T17:13:48.001Z,100065.31
2023-05-22T17:16:50.891Z,100068.81
2023-05-22T17:19:53.415Z,100069.66
2023-05-22T17:22:56.350Z,100073.47
2023-05-22T17:25:58.948Z,100076.41
2023-05-22T17:29:01.482Z,100073.19
2023-05-22T17:32:06.248Z,100073.84
2023-05-22T17:35:09.535Z,100063.09
2023-05-22T17:38:12.314Z,100067.25
2023-05-22T17:41:15.405Z,100071.91
2023-05-22T17:44:17.827Z,100076.59
2023-05-22T17:47:20.553Z,100089.84
2023-05-22T17:50:23.025Z,100096.94
2023-05-22T17:53:26.434Z,100095.41
2023-05-22T17:56:28.757Z,100096.25
2023-05-22T17:59:32.507Z,100104.81
2023-05-22T18:02:35.058Z,100094.56
2023-05-22T18:05:37.963Z,100091.81
2023-05-22T18:08:40.405Z,100094.41
2023-05-22T18:11:43.107Z,100105.34
2023-05-22T18:14:46.663Z,100114.22
2023-05-22T18:17:49.602Z,100114.41
2023-05-22T18:20:52.385Z,100111.75
2023-05-22T18:23:55.205Z,100111.37
2023-05-22T18:26:57.667Z,100111.84
2023-05-22T18:30:00.938Z,100109.91
2023-05-22T18:33:03.908Z,100114.31
2023-05-22T18:36:06.719Z,100115.22
2023-05-22T18:39:10.054Z,100123.41
2023-05-22T18:42:13.408Z,100117.00
2023-05-22T18:45:15.977Z,100116.06
2023-05-22T18:48:18.550Z,100116.41
2023-05-22T18:51:21.266Z,100115.31
2023-05-22T18:54:24.510Z,100115.09
2023-05-22T18:57:27.126Z,100108.94
2023-05-22T19:00:30.777Z,100107.41
2023-05-22T19:03:33.857Z,100108.97
2023-05-22T19:06:37.758Z,100116.41
2023-05-22T19:09:40.496Z,100119.94
2023-05-22T19:12:43.522Z,100130.03
2023-05-22T19:15:46.704Z,100133.69
2023-05-22T19:18:49.852Z,100132.31
2023-05-22T19:21:54.041Z,100143.94
2023-05-22T19:24:57.142Z,100144.50
2023-05-22T19:28:00.015Z,100140.88
2023-05-22T19:31:04.527Z,100144.91
2023-05-22T19:34:07.507Z,100149.50
2023-05-22T19:37:10.393Z,100156.09
2023-05-22T19:40:13.484Z,100163.63
2023-05-22T19:43:16.209Z,100155.91
2023-05-22T19:46:19.097Z,100163.47
2023-05-22T19:49:25.873Z,100154.63
2023-05-22T19:52:29.314Z,100156.44
2023-05-22T19:55:33.239Z,100154.50
2023-05-22T19:58:36.882Z,100159.53
2023-05-22T20:01:40.834Z,100150.69
2023-05-22T20:04:43.723Z,100153.50
2023-05-22T20:07:48.544Z,100146.91
2023-05-22T20:10:51.930Z,100153.00
2023-05-22T20:13:55.465Z,100157.38
2023-05-22T20:16:59.205Z,100154.16
2023-05-22T20:20:01.860Z,100150.06
2023-05-22T20:23:06.030Z,100150.22
2023-05-22T20:26:08.490Z,100151.31
2023-05-22T20:29:11.475Z,100138.97
2023-05-22T20:32:13.963Z,100141.28
2023-05-22T20:35:18.788Z,100138.44
2023-05-22T20:38:22.446Z,100137.59
2023-05-22T20:41:25.243Z,100137.16
2023-05-22T20:44:28.580Z,100130.41
2023-05-22T20:47:31.702Z,100139.28
2023-05-22T20:50:37.002Z,100138.25
2023-05-22T20:53:42.020Z,100145.78
2023-05-22T20:56:44.408Z,100143.91
2023-05-22T20:59:47.179Z,100138.13
2023-05-22T21:02:49.830Z,100136.13
2023-05-22T21:05:52.534Z,100130.34
2023-05-22T21:09:01.634Z,100135.66
2023-05-22T21:12:04.630Z,100134.97
2023-05-22T21:15:07.644Z,100135.09
2023-05-22T21:18:11.255Z,100135.56
2023-05-22T21:21:20.080Z,100134.41
2023-05-22T21:24:22.848Z,100129.59
2023-05-22T21:27:25.340Z,100139.47
2023-05-22T21:30:28.327Z,100142.13
2023-05-22T21:33:30.845Z,100140.47
2023-05-22T21:36:33.555Z,100143.50
2023-05-22T21:39:35.923Z,100145.69
2023-05-22T21:42:47.099Z,100148.44
2023-05-22T21:45:49.840Z,100148.72
2023-05-22T21:48:53.853Z,100150.53
2023-05-22T21:51:56.638Z,100148.50
2023-05-22T21:55:01.396Z,100157.78
2023-05-22T21:58:03.805Z,100153.09
2023-05-22T22:01:06.642Z,100155.28
2023-05-22T22:04:09.456Z,100148.69
2023-05-22T22:07:12.304Z,100147.00
2023-05-22T22:10:15.065Z,100140.97
2023-05-22T22:13:17.525Z,100146.91
2023-05-22T22:16:21.996Z,100148.22
2023-05-22T22:19:24.634Z,100138.84
2023-05-22T22:22:27.418Z,100143.28
2023-05-22T22:25:29.803Z,100142.22
2023-05-22T22:28:32.600Z,100145.81
2023-05-22T22:31:35.707Z,100145.81
2023-05-22T22:34:38.570Z,100151.22
2023-05-22T22:37:40.998Z,100158.69
2023-05-22T22:40:43.917Z,100156.06
2023-05-22T22:43:46.433Z,100147.38
2023-05-22T22:46:49.567Z,100142.69
2023-05-22T22:49:52.656Z,100148.22
2023-05-22T22:52:55.603Z,100138.00
2023-05-22T22:55:59.148Z,100141.47
2023-05-22T22:59:02.178Z,100137.03
2023-05-22T23:02:04.944Z,100132.94
2023-05-22T23:05:08.281Z,100136.44
2023-05-22T23:08:11.017Z,100134.12
2023-05-22T23:11:13.721Z,100138.94
2023-05-22T23:14:17.788Z,100133.91
2023-05-22T23:17:20.539Z,100134.84
2023-05-22T23:20:22.905Z,100141.94
2023-05-22T23:23:25.717Z,100134.38
2023-05-22T23:26:28.494Z,100138.72
2023-05-22T23:29:31.182Z,100140.12
2023-05-22T23:32:33.826Z,100139.88
2023-05-22T23:35:36.630Z,100137.59
2023-05-22T23:38:39.062Z,100137.91
2023-05-22T23:41:42.273Z,100136.38
2023-05-22T23:44:44.799Z,100147.06
2023-05-22T23:47:47.549Z,100134.19
2023-05-22T23:50:49.936Z,100136.22
2023-05-22T23:53:52.838Z,100139.31
2023-05-22T23:56:55.459Z,100152.75
2023-05-22T23:59:58.158Z,100149.72
